sensor_id;sensor_type;location;lat;lon;timestamp;temperature;humidity
23347;DHT22;36852;45.466;11.066;2023-07-29T00:00:09;25.80;99.90
23347;DHT22;36852;45.466;11.066;2023-07-29T00:02:39;25.80;99.90
23347;DHT22;36852;45.466;11.066;2023-07-29T00:05:07;25.70;99.90
23347;DHT22;36852;45.466;11.066;2023-07-29T00:07:35;25.70;99.90
23347;DHT22;36852;45.466;11.066;2023-07-29T00:10:03;25.70;99.90
23347;DHT22;36852;45.466;11.066;2023-07-29T00:12:32;25.60;99.90
23347;DHT22;36852;45.466;11.066;2023-07-29T00:15:00;25.60;99.90
23347;DHT22;36852;45.466;11.066;2023-07-29T00:17:28;25.70;99.90
23347;DHT22;36852;45.466;11.066;2023-07-29T00:19:57;25.60;99.90
23347;DHT22;36852;45.466;11.066;2023-07-29T00:22:25;25.60;99.90
23347;DHT22;36852;45.466;11.066;2023-07-29T00:24:53;25.60;99.90
23347;DHT22;36852;45.466;11.066;2023-07-29T00:27:25;25.60;99.90
23347;DHT22;36852;45.466;11.066;2023-07-29T00:29:54;25.60;99.90
23347;DHT22;36852;45.466;11.066;2023-07-29T00:32:22;25.50;99.90
23347;DHT22;36852;45.466;11.066;2023-07-29T00:34:50;25.50;99.90
23347;DHT22;36852;45.466;11.066;2023-07-29T00:37:17;25.50;99.90
23347;DHT22;36852;45.466;11.066;2023-07-29T00:39:45;25.50;99.90
23347;DHT22;36852;45.466;11.066;2023-07-29T00:42:13;25.50;99.90
23347;DHT22;36852;45.466;11.066;2023-07-29T00:44:41;25.50;99.90
23347;DHT22;36852;45.466;11.066;2023-07-29T00:47:09;25.50;99.90
23347;DHT22;36852;45.466;11.066;2023-07-29T00:49:38;25.50;99.90
23347;DHT22;36852;45.466;11.066;2023-07-29T00:52:07;25.50;99.90
23347;DHT22;36852;45.466;11.066;2023-07-29T00:54:35;25.40;99.90
23347;DHT22;36852;45.466;11.066;2023-07-29T00:57:03;25.40;99.90
23347;DHT22;36852;45.466;11.066;2023-07-29T00:59:31;25.40;99.90
23347;DHT22;36852;45.466;11.066;2023-07-29T01:02:00;25.40;99.90
23347;DHT22;36852;45.466;11.066;2023-07-29T01:04:29;25.30;99.90
23347;DHT22;36852;45.466;11.066;2023-07-29T01:09:50;25.30;99.90
23347;DHT22;36852;45.466;11.066;2023-07-29T01:12:21;25.30;99.90
23347;DHT22;36852;45.466;11.066;2023-07-29T01:15:32;25.20;99.90
23347;DHT22;36852;45.466;11.066;2023-07-29T01:17:38;25.20;99.90
23347;DHT22;36852;45.466;11.066;2023-07-29T01:20:11;25.20;99.90
23347;DHT22;36852;45.466;11.066;2023-07-29T01:22:39;25.20;99.90
23347;DHT22;36852;45.466;11.066;2023-07-29T01:25:08;25.20;99.90
23347;DHT22;36852;45.466;11.066;2023-07-29T01:27:35;25.10;99.90
23347;DHT22;36852;45.466;11.066;2023-07-29T01:30:03;25.10;99.90
23347;DHT22;36852;45.466;11.066;2023-07-29T01:32:59;25.20;99.90
23347;DHT22;36852;45.466;11.066;2023-07-29T01:40:42;25.10;99.90
23347;DHT22;36852;45.466;11.066;2023-07-29T01:43:10;25.10;99.90
23347;DHT22;36852;45.466;11.066;2023-07-29T01:45:38;25.10;99.90
23347;DHT22;36852;45.466;11.066;2023-07-29T01:48:07;25.10;99.90
23347;DHT22;36852;45.466;11.066;2023-07-29T01:50:35;25.10;99.90
23347;DHT22;36852;45.466;11.066;2023-07-29T01:53:03;25.10;99.90
23347;DHT22;36852;45.466;11.066;2023-07-29T01:55:31;25.10;99.90
23347;DHT22;36852;45.466;11.066;2023-07-29T01:57:58;25.10;99.90
23347;DHT22;36852;45.466;11.066;2023-07-29T02:00:26;25.10;99.90
23347;DHT22;36852;45.466;11.066;2023-07-29T02:02:54;25.10;99.90
23347;DHT22;36852;45.466;11.066;2023-07-29T02:05:22;25.10;99.90
23347;DHT22;36852;45.466;11.066;2023-07-29T02:07:49;25.10;99.90
23347;DHT22;36852;45.466;11.066;2023-07-29T02:10:17;25.10;99.90
23347;DHT22;36852;45.466;11.066;2023-07-29T02:12:45;25.00;99.90
23347;DHT22;36852;45.466;11.066;2023-07-29T02:15:13;25.00;99.90
23347;DHT22;36852;45.466;11.066;2023-07-29T02:17:42;25.00;99.90
23347;DHT22;36852;45.466;11.066;2023-07-29T02:20:10;25.00;99.90
23347;DHT22;36852;45.466;11.066;2023-07-29T02:22:40;25.00;99.90
23347;DHT22;36852;45.466;11.066;2023-07-29T02:25:08;25.00;99.90
23347;DHT22;36852;45.466;11.066;2023-07-29T02:27:37;24.90;99.90
23347;DHT22;36852;45.466;11.066;2023-07-29T02:30:06;24.90;99.90
23347;DHT22;36852;45.466;11.066;2023-07-29T02:32:34;24.90;99.90
23347;DHT22;36852;45.466;11.066;2023-07-29T02:35:02;24.90;99.90
23347;DHT22;36852;45.466;11.066;2023-07-29T02:37:33;24.90;99.90
23347;DHT22;36852;45.466;11.066;2023-07-29T02:40:02;24.90;99.90
23347;DHT22;36852;45.466;11.066;2023-07-29T02:42:31;24.90;99.90
23347;DHT22;36852;45.466;11.066;2023-07-29T02:44:58;24.90;99.90
23347;DHT22;36852;45.466;11.066;2023-07-29T02:47:26;24.90;99.90
23347;DHT22;36852;45.466;11.066;2023-07-29T02:49:53;24.90;99.90
23347;DHT22;36852;45.466;11.066;2023-07-29T02:52:21;24.90;99.90
23347;DHT22;36852;45.466;11.066;2023-07-29T02:54:49;24.90;99.90
23347;DHT22;36852;45.466;11.066;2023-07-29T02:57:17;24.90;99.90
23347;DHT22;36852;45.466;11.066;2023-07-29T02:59:45;24.80;99.90
23347;DHT22;36852;45.466;11.066;2023-07-29T03:02:12;24.80;99.90
23347;DHT22;36852;45.466;11.066;2023-07-29T03:04:41;24.80;99.90
23347;DHT22;36852;45.466;11.066;2023-07-29T03:07:11;24.80;99.90
23347;DHT22;36852;45.466;11.066;2023-07-29T03:09:38;24.80;99.90
23347;DHT22;36852;45.466;11.066;2023-07-29T03:12:08;24.70;99.90
23347;DHT22;36852;45.466;11.066;2023-07-29T03:14:36;24.70;99.90
23347;DHT22;36852;45.466;11.066;2023-07-29T03:17:03;24.70;99.90
23347;DHT22;36852;45.466;11.066;2023-07-29T03:19:31;24.70;99.90
23347;DHT22;36852;45.466;11.066;2023-07-29T03:21:59;24.60;99.90
23347;DHT22;36852;45.466;11.066;2023-07-29T03:24:27;24.60;99.90
23347;DHT22;36852;45.466;11.066;2023-07-29T03:26:56;24.60;99.90
23347;DHT22;36852;45.466;11.066;2023-07-29T03:29:25;24.60;99.90
23347;DHT22;36852;45.466;11.066;2023-07-29T03:31:53;24.60;99.90
23347;DHT22;36852;45.466;11.066;2023-07-29T03:34:22;24.60;99.90
23347;DHT22;36852;45.466;11.066;2023-07-29T03:36:50;24.60;99.90
23347;DHT22;36852;45.466;11.066;2023-07-29T03:39:18;24.60;99.90
23347;DHT22;36852;45.466;11.066;2023-07-29T03:41:46;24.60;99.90
23347;DHT22;36852;45.466;11.066;2023-07-29T03:44:14;24.60;99.90
23347;DHT22;36852;45.466;11.066;2023-07-29T03:46:42;24.60;99.90
23347;DHT22;36852;45.466;11.066;2023-07-29T03:49:10;24.60;99.90
23347;DHT22;36852;45.466;11.066;2023-07-29T03:51:38;24.60;99.90
23347;DHT22;36852;45.466;11.066;2023-07-29T03:54:06;24.60;99.90
23347;DHT22;36852;45.466;11.066;2023-07-29T03:56:35;24.60;99.90
23347;DHT22;36852;45.466;11.066;2023-07-29T03:59:05;24.60;99.90
23347;DHT22;36852;45.466;11.066;2023-07-29T04:01:36;24.60;99.90
23347;DHT22;36852;45.466;11.066;2023-07-29T04:04:04;24.60;99.90
23347;DHT22;36852;45.466;11.066;2023-07-29T04:06:32;24.60;99.90
23347;DHT22;36852;45.466;11.066;2023-07-29T04:09:01;24.60;99.90
23347;DHT22;36852;45.466;11.066;2023-07-29T04:11:28;24.60;99.90
23347;DHT22;36852;45.466;11.066;2023-07-29T04:13:56;24.60;99.90
23347;DHT22;36852;45.466;11.066;2023-07-29T04:16:25;24.60;99.90
23347;DHT22;36852;45.466;11.066;2023-07-29T04:18:54;24.60;99.90
23347;DHT22;36852;45.466;11.066;2023-07-29T04:21:22;24.60;99.90
23347;DHT22;36852;45.466;11.066;2023-07-29T04:23:49;24.60;99.90
23347;DHT22;36852;45.466;11.066;2023-07-29T04:26:17;24.60;99.90
23347;DHT22;36852;45.466;11.066;2023-07-29T04:28:45;24.60;99.90
23347;DHT22;36852;45.466;11.066;2023-07-29T04:31:13;24.60;99.90
23347;DHT22;36852;45.466;11.066;2023-07-29T04:33:41;24.60;99.90
23347;DHT22;36852;45.466;11.066;2023-07-29T04:36:08;24.60;99.90
23347;DHT22;36852;45.466;11.066;2023-07-29T04:38:37;24.60;99.90
23347;DHT22;36852;45.466;11.066;2023-07-29T04:41:05;24.60;99.90
23347;DHT22;36852;45.466;11.066;2023-07-29T04:43:34;24.60;99.90
23347;DHT22;36852;45.466;11.066;2023-07-29T04:46:02;24.60;99.90
23347;DHT22;36852;45.466;11.066;2023-07-29T04:48:30;24.60;99.90
23347;DHT22;36852;45.466;11.066;2023-07-29T04:50:57;24.60;99.90
23347;DHT22;36852;45.466;11.066;2023-07-29T04:53:25;24.60;99.90
23347;DHT22;36852;45.466;11.066;2023-07-29T04:55:53;24.60;99.90
23347;DHT22;36852;45.466;11.066;2023-07-29T04:58:21;24.60;99.90
23347;DHT22;36852;45.466;11.066;2023-07-29T05:00:49;24.60;99.90
23347;DHT22;36852;45.466;11.066;2023-07-29T05:03:17;24.60;99.90
23347;DHT22;36852;45.466;11.066;2023-07-29T05:05:45;24.60;99.90
23347;DHT22;36852;45.466;11.066;2023-07-29T05:08:13;24.60;99.90
23347;DHT22;36852;45.466;11.066;2023-07-29T05:10:41;24.60;99.90
23347;DHT22;36852;45.466;11.066;2023-07-29T05:13:08;24.70;99.90
23347;DHT22;36852;45.466;11.066;2023-07-29T05:15:36;24.70;99.90
23347;DHT22;36852;45.466;11.066;2023-07-29T05:18:03;24.70;99.90
23347;DHT22;36852;45.466;11.066;2023-07-29T05:20:31;24.80;99.90
23347;DHT22;36852;45.466;11.066;2023-07-29T05:22:59;24.80;99.90
23347;DHT22;36852;45.466;11.066;2023-07-29T05:25:27;24.90;99.90
23347;DHT22;36852;45.466;11.066;2023-07-29T05:27:55;24.90;99.90
23347;DHT22;36852;45.466;11.066;2023-07-29T05:30:24;24.90;99.90
23347;DHT22;36852;45.466;11.066;2023-07-29T05:32:53;24.90;99.90
23347;DHT22;36852;45.466;11.066;2023-07-29T05:35:21;25.00;99.90
23347;DHT22;36852;45.466;11.066;2023-07-29T05:37:49;25.00;99.90
23347;DHT22;36852;45.466;11.066;2023-07-29T05:40:17;25.00;99.90
23347;DHT22;36852;45.466;11.066;2023-07-29T05:42:45;25.10;99.90
23347;DHT22;36852;45.466;11.066;2023-07-29T05:45:12;25.10;99.90
23347;DHT22;36852;45.466;11.066;2023-07-29T05:47:41;25.10;99.90
23347;DHT22;36852;45.466;11.066;2023-07-29T05:50:09;25.10;99.90
23347;DHT22;36852;45.466;11.066;2023-07-29T05:52:37;25.10;99.90
23347;DHT22;36852;45.466;11.066;2023-07-29T05:55:05;25.20;99.90
23347;DHT22;36852;45.466;11.066;2023-07-29T05:57:33;25.20;99.90
23347;DHT22;36852;45.466;11.066;2023-07-29T06:00:05;25.20;99.90
23347;DHT22;36852;45.466;11.066;2023-07-29T06:02:34;25.20;99.90
23347;DHT22;36852;45.466;11.066;2023-07-29T06:05:02;25.20;99.90
23347;DHT22;36852;45.466;11.066;2023-07-29T06:07:32;25.20;99.90
23347;DHT22;36852;45.466;11.066;2023-07-29T06:10:01;25.30;99.90
23347;DHT22;36852;45.466;11.066;2023-07-29T06:12:29;25.30;99.90
23347;DHT22;36852;45.466;11.066;2023-07-29T06:14:59;25.30;99.90
23347;DHT22;36852;45.466;11.066;2023-07-29T06:17:27;25.40;99.90
23347;DHT22;36852;45.466;11.066;2023-07-29T06:19:55;25.50;99.90
23347;DHT22;36852;45.466;11.066;2023-07-29T06:22:23;25.50;99.90
23347;DHT22;36852;45.466;11.066;2023-07-29T06:24:50;25.60;99.90
23347;DHT22;36852;45.466;11.066;2023-07-29T06:27:18;25.60;99.90
23347;DHT22;36852;45.466;11.066;2023-07-29T06:29:49;25.60;99.90
23347;DHT22;36852;45.466;11.066;2023-07-29T06:32:17;25.70;99.90
23347;DHT22;36852;45.466;11.066;2023-07-29T06:34:45;25.70;99.90
23347;DHT22;36852;45.466;11.066;2023-07-29T06:37:13;25.70;99.90
23347;DHT22;36852;45.466;11.066;2023-07-29T06:39:41;25.80;99.90
23347;DHT22;36852;45.466;11.066;2023-07-29T06:42:09;25.80;99.90
23347;DHT22;36852;45.466;11.066;2023-07-29T06:44:37;25.90;99.90
23347;DHT22;36852;45.466;11.066;2023-07-29T06:47:05;25.90;99.90
23347;DHT22;36852;45.466;11.066;2023-07-29T06:49:33;26.00;99.90
23347;DHT22;36852;45.466;11.066;2023-07-29T06:52:01;26.00;99.90
23347;DHT22;36852;45.466;11.066;2023-07-29T06:54:29;26.00;99.90
23347;DHT22;36852;45.466;11.066;2023-07-29T06:56:56;26.10;99.90
23347;DHT22;36852;45.466;11.066;2023-07-29T06:59:24;26.10;99.90
23347;DHT22;36852;45.466;11.066;2023-07-29T07:01:53;26.20;99.90
23347;DHT22;36852;45.466;11.066;2023-07-29T07:04:20;26.20;99.90
23347;DHT22;36852;45.466;11.066;2023-07-29T07:06:48;26.30;99.90
23347;DHT22;36852;45.466;11.066;2023-07-29T07:09:16;26.30;99.90
23347;DHT22;36852;45.466;11.066;2023-07-29T07:11:44;26.30;99.90
23347;DHT22;36852;45.466;11.066;2023-07-29T07:14:12;26.40;99.90
23347;DHT22;36852;45.466;11.066;2023-07-29T07:16:40;26.50;99.90
23347;DHT22;36852;45.466;11.066;2023-07-29T07:19:09;26.50;99.90
23347;DHT22;36852;45.466;11.066;2023-07-29T07:21:40;26.50;99.90
23347;DHT22;36852;45.466;11.066;2023-07-29T07:24:08;26.60;99.90
23347;DHT22;36852;45.466;11.066;2023-07-29T07:26:35;26.60;99.90
23347;DHT22;36852;45.466;11.066;2023-07-29T07:29:04;26.60;99.90
23347;DHT22;36852;45.466;11.066;2023-07-29T07:31:34;26.60;99.90
23347;DHT22;36852;45.466;11.066;2023-07-29T07:34:02;26.70;99.90
23347;DHT22;36852;45.466;11.066;2023-07-29T07:36:32;26.70;99.90
23347;DHT22;36852;45.466;11.066;2023-07-29T07:39:00;26.70;99.90
23347;DHT22;36852;45.466;11.066;2023-07-29T07:41:28;26.80;99.90
23347;DHT22;36852;45.466;11.066;2023-07-29T07:43:56;26.80;99.90
23347;DHT22;36852;45.466;11.066;2023-07-29T07:46:24;26.80;99.90
23347;DHT22;36852;45.466;11.066;2023-07-29T07:48:51;26.90;99.90
23347;DHT22;36852;45.466;11.066;2023-07-29T07:51:20;26.90;99.90
23347;DHT22;36852;45.466;11.066;2023-07-29T07:53:48;26.90;99.90
23347;DHT22;36852;45.466;11.066;2023-07-29T07:56:19;26.90;99.90
23347;DHT22;36852;45.466;11.066;2023-07-29T07:58:47;26.90;99.90
23347;DHT22;36852;45.466;11.066;2023-07-29T08:01:14;26.90;99.90
23347;DHT22;36852;45.466;11.066;2023-07-29T08:03:42;26.90;99.90
23347;DHT22;36852;45.466;11.066;2023-07-29T08:06:10;27.00;99.90
23347;DHT22;36852;45.466;11.066;2023-07-29T08:08:38;27.00;99.90
23347;DHT22;36852;45.466;11.066;2023-07-29T08:11:06;27.00;99.90
23347;DHT22;36852;45.466;11.066;2023-07-29T08:13:34;27.00;99.90
23347;DHT22;36852;45.466;11.066;2023-07-29T08:16:02;27.10;99.90
23347;DHT22;36852;45.466;11.066;2023-07-29T08:18:31;27.10;99.90
23347;DHT22;36852;45.466;11.066;2023-07-29T08:21:00;27.10;99.90
23347;DHT22;36852;45.466;11.066;2023-07-29T08:23:35;27.10;99.90
23347;DHT22;36852;45.466;11.066;2023-07-29T08:26:04;27.10;99.90
23347;DHT22;36852;45.466;11.066;2023-07-29T08:28:37;27.10;99.90
23347;DHT22;36852;45.466;11.066;2023-07-29T08:31:08;27.20;99.90
23347;DHT22;36852;45.466;11.066;2023-07-29T08:33:35;27.20;99.90
23347;DHT22;36852;45.466;11.066;2023-07-29T08:36:04;27.20;99.90
23347;DHT22;36852;45.466;11.066;2023-07-29T08:38:32;27.30;99.90
23347;DHT22;36852;45.466;11.066;2023-07-29T08:41:16;27.30;99.90
23347;DHT22;36852;45.466;11.066;2023-07-29T08:43:50;27.30;99.90
23347;DHT22;36852;45.466;11.066;2023-07-29T08:46:16;27.40;99.90
23347;DHT22;36852;45.466;11.066;2023-07-29T08:48:44;27.40;99.90
23347;DHT22;36852;45.466;11.066;2023-07-29T08:51:14;27.40;99.90
23347;DHT22;36852;45.466;11.066;2023-07-29T08:53:43;27.40;99.90
23347;DHT22;36852;45.466;11.066;2023-07-29T08:56:11;27.40;99.90
23347;DHT22;36852;45.466;11.066;2023-07-29T08:58:39;27.50;99.90
23347;DHT22;36852;45.466;11.066;2023-07-29T09:01:07;27.50;99.90
23347;DHT22;36852;45.466;11.066;2023-07-29T09:03:36;27.50;99.90
23347;DHT22;36852;45.466;11.066;2023-07-29T09:06:05;27.60;99.90
23347;DHT22;36852;45.466;11.066;2023-07-29T09:08:34;27.60;99.90
23347;DHT22;36852;45.466;11.066;2023-07-29T09:11:03;27.60;99.90
23347;DHT22;36852;45.466;11.066;2023-07-29T09:13:34;27.60;99.90
23347;DHT22;36852;45.466;11.066;2023-07-29T09:16:03;27.60;99.90
23347;DHT22;36852;45.466;11.066;2023-07-29T09:18:31;27.70;99.90
23347;DHT22;36852;45.466;11.066;2023-07-29T09:20:59;27.80;99.90
23347;DHT22;36852;45.466;11.066;2023-07-29T09:23:41;27.80;99.90
23347;DHT22;36852;45.466;11.066;2023-07-29T09:26:10;27.90;99.90
23347;DHT22;36852;45.466;11.066;2023-07-29T09:28:39;27.90;99.90
23347;DHT22;36852;45.466;11.066;2023-07-29T09:31:19;27.90;99.90
23347;DHT22;36852;45.466;11.066;2023-07-29T09:33:47;28.00;99.90
23347;DHT22;36852;45.466;11.066;2023-07-29T09:36:15;28.10;99.90
23347;DHT22;36852;45.466;11.066;2023-07-29T09:38:44;28.10;99.90
23347;DHT22;36852;45.466;11.066;2023-07-29T09:41:34;28.10;99.90
23347;DHT22;36852;45.466;11.066;2023-07-29T09:44:03;28.10;99.90
23347;DHT22;36852;45.466;11.066;2023-07-29T09:46:35;28.20;99.90
23347;DHT22;36852;45.466;11.066;2023-07-29T09:49:04;28.20;99.90
23347;DHT22;36852;45.466;11.066;2023-07-29T09:51:39;28.20;99.90
23347;DHT22;36852;45.466;11.066;2023-07-29T09:54:07;28.20;99.90
23347;DHT22;36852;45.466;11.066;2023-07-29T09:56:39;28.20;99.90
23347;DHT22;36852;45.466;11.066;2023-07-29T09:59:11;28.20;99.90
23347;DHT22;36852;45.466;11.066;2023-07-29T10:01:39;28.20;99.90
23347;DHT22;36852;45.466;11.066;2023-07-29T10:04:09;28.20;99.90
23347;DHT22;36852;45.466;11.066;2023-07-29T10:06:39;28.30;99.90
23347;DHT22;36852;45.466;11.066;2023-07-29T10:09:08;28.30;99.90
23347;DHT22;36852;45.466;11.066;2023-07-29T10:11:37;28.20;99.90
23347;DHT22;36852;45.466;11.066;2023-07-29T10:14:08;28.20;99.90
23347;DHT22;36852;45.466;11.066;2023-07-29T10:16:39;28.20;99.90
23347;DHT22;36852;45.466;11.066;2023-07-29T10:19:09;28.30;99.90
23347;DHT22;36852;45.466;11.066;2023-07-29T10:21:39;28.30;99.90
23347;DHT22;36852;45.466;11.066;2023-07-29T10:24:11;28.30;99.90
23347;DHT22;36852;45.466;11.066;2023-07-29T10:26:42;28.40;99.90
23347;DHT22;36852;45.466;11.066;2023-07-29T10:29:13;28.40;99.90
23347;DHT22;36852;45.466;11.066;2023-07-29T10:31:42;28.40;99.90
23347;DHT22;36852;45.466;11.066;2023-07-29T10:34:12;28.40;99.90
23347;DHT22;36852;45.466;11.066;2023-07-29T10:36:41;28.40;99.90
23347;DHT22;36852;45.466;11.066;2023-07-29T10:39:09;28.40;99.90
23347;DHT22;36852;45.466;11.066;2023-07-29T10:42:01;28.50;99.90
23347;DHT22;36852;45.466;11.066;2023-07-29T10:44:46;28.50;99.90
23347;DHT22;36852;45.466;11.066;2023-07-29T10:47:21;28.60;99.90
23347;DHT22;36852;45.466;11.066;2023-07-29T10:49:49;28.50;99.90
23347;DHT22;36852;45.466;11.066;2023-07-29T10:57:52;28.60;99.90
23347;DHT22;36852;45.466;11.066;2023-07-29T11:00:22;28.60;99.90
23347;DHT22;36852;45.466;11.066;2023-07-29T11:02:59;28.60;99.90
23347;DHT22;36852;45.466;11.066;2023-07-29T11:05:49;28.50;99.90
23347;DHT22;36852;45.466;11.066;2023-07-29T11:08:29;28.40;99.90
23347;DHT22;36852;45.466;11.066;2023-07-29T11:11:05;28.40;99.90
23347;DHT22;36852;45.466;11.066;2023-07-29T11:13:35;28.40;99.90
23347;DHT22;36852;45.466;11.066;2023-07-29T11:16:05;28.40;99.90
23347;DHT22;36852;45.466;11.066;2023-07-29T11:18:35;28.40;99.90
23347;DHT22;36852;45.466;11.066;2023-07-29T11:21:03;28.40;99.90
23347;DHT22;36852;45.466;11.066;2023-07-29T11:23:34;28.40;99.90
23347;DHT22;36852;45.466;11.066;2023-07-29T11:26:04;28.40;99.90
23347;DHT22;36852;45.466;11.066;2023-07-29T11:28:37;28.50;99.90
23347;DHT22;36852;45.466;11.066;2023-07-29T11:31:03;28.50;99.90
23347;DHT22;36852;45.466;11.066;2023-07-29T11:33:32;28.60;99.90
23347;DHT22;36852;45.466;11.066;2023-07-29T11:35:59;28.60;99.90
23347;DHT22;36852;45.466;11.066;2023-07-29T11:38:27;28.70;99.90
23347;DHT22;36852;45.466;11.066;2023-07-29T11:41:00;28.80;99.90
23347;DHT22;36852;45.466;11.066;2023-07-29T11:43:36;28.90;99.90
23347;DHT22;36852;45.466;11.066;2023-07-29T11:46:04;28.90;99.90
23347;DHT22;36852;45.466;11.066;2023-07-29T11:48:33;28.90;99.90
23347;DHT22;36852;45.466;11.066;2023-07-29T11:51:02;28.90;99.90
23347;DHT22;36852;45.466;11.066;2023-07-29T11:53:30;28.90;99.90
23347;DHT22;36852;45.466;11.066;2023-07-29T11:55:58;28.90;99.90
23347;DHT22;36852;45.466;11.066;2023-07-29T11:58:29;28.90;99.90
23347;DHT22;36852;45.466;11.066;2023-07-29T12:00:57;28.90;99.90
23347;DHT22;36852;45.466;11.066;2023-07-29T12:03:29;28.80;99.90
23347;DHT22;36852;45.466;11.066;2023-07-29T12:05:58;28.80;99.90
23347;DHT22;36852;45.466;11.066;2023-07-29T12:08:29;28.90;99.90
23347;DHT22;36852;45.466;11.066;2023-07-29T12:10:56;28.90;99.90
23347;DHT22;36852;45.466;11.066;2023-07-29T12:13:25;29.00;99.90
23347;DHT22;36852;45.466;11.066;2023-07-29T12:16:00;29.10;99.90
23347;DHT22;36852;45.466;11.066;2023-07-29T12:18:29;29.30;99.90
23347;DHT22;36852;45.466;11.066;2023-07-29T12:20:58;29.40;99.90
23347;DHT22;36852;45.466;11.066;2023-07-29T12:23:27;29.30;99.90
23347;DHT22;36852;45.466;11.066;2023-07-29T12:25:58;29.30;99.90
23347;DHT22;36852;45.466;11.066;2023-07-29T12:28:27;29.30;99.90
23347;DHT22;36852;45.466;11.066;2023-07-29T12:30:55;29.30;99.90
23347;DHT22;36852;45.466;11.066;2023-07-29T12:33:34;29.30;99.90
23347;DHT22;36852;45.466;11.066;2023-07-29T12:38:49;29.20;99.90
23347;DHT22;36852;45.466;11.066;2023-07-29T12:41:17;29.20;99.90
23347;DHT22;36852;45.466;11.066;2023-07-29T12:43:45;29.20;99.90
23347;DHT22;36852;45.466;11.066;2023-07-29T12:46:13;29.20;99.90
23347;DHT22;36852;45.466;11.066;2023-07-29T12:48:41;29.10;99.90
23347;DHT22;36852;45.466;11.066;2023-07-29T12:51:08;29.20;99.90
23347;DHT22;36852;45.466;11.066;2023-07-29T12:53:36;29.20;99.90
23347;DHT22;36852;45.466;11.066;2023-07-29T12:56:06;29.30;99.90
23347;DHT22;36852;45.466;11.066;2023-07-29T12:58:33;29.30;99.90
23347;DHT22;36852;45.466;11.066;2023-07-29T13:01:01;29.50;99.90
23347;DHT22;36852;45.466;11.066;2023-07-29T13:03:29;29.60;99.90
23347;DHT22;36852;45.466;11.066;2023-07-29T13:05:57;29.60;99.90
23347;DHT22;36852;45.466;11.066;2023-07-29T13:08:25;29.60;99.90
23347;DHT22;36852;45.466;11.066;2023-07-29T13:10:53;29.60;99.90
23347;DHT22;36852;45.466;11.066;2023-07-29T13:13:21;29.60;99.90
23347;DHT22;36852;45.466;11.066;2023-07-29T13:15:52;29.60;99.90
23347;DHT22;36852;45.466;11.066;2023-07-29T13:18:21;29.70;99.90
23347;DHT22;36852;45.466;11.066;2023-07-29T13:20:50;29.70;99.90
23347;DHT22;36852;45.466;11.066;2023-07-29T13:23:17;29.70;99.90
23347;DHT22;36852;45.466;11.066;2023-07-29T13:25:45;29.70;99.90
23347;DHT22;36852;45.466;11.066;2023-07-29T13:28:13;29.70;99.90
23347;DHT22;36852;45.466;11.066;2023-07-29T13:30:41;29.70;99.90
23347;DHT22;36852;45.466;11.066;2023-07-29T13:33:08;29.80;99.90
23347;DHT22;36852;45.466;11.066;2023-07-29T13:35:37;29.80;99.90
23347;DHT22;36852;45.466;11.066;2023-07-29T13:38:04;29.80;99.90
23347;DHT22;36852;45.466;11.066;2023-07-29T13:40:33;29.80;99.90
23347;DHT22;36852;45.466;11.066;2023-07-29T13:43:02;29.70;99.90
23347;DHT22;36852;45.466;11.066;2023-07-29T13:45:34;29.70;99.90
23347;DHT22;36852;45.466;11.066;2023-07-29T13:48:03;29.60;99.90
23347;DHT22;36852;45.466;11.066;2023-07-29T13:50:31;29.60;99.90
23347;DHT22;36852;45.466;11.066;2023-07-29T13:52:58;29.70;99.90
23347;DHT22;36852;45.466;11.066;2023-07-29T13:55:26;29.70;99.90
23347;DHT22;36852;45.466;11.066;2023-07-29T13:57:53;29.80;99.90
23347;DHT22;36852;45.466;11.066;2023-07-29T14:00:22;29.80;99.90
23347;DHT22;36852;45.466;11.066;2023-07-29T14:02:50;29.80;99.90
23347;DHT22;36852;45.466;11.066;2023-07-29T14:05:18;29.90;99.90
23347;DHT22;36852;45.466;11.066;2023-07-29T14:07:47;29.90;99.90
23347;DHT22;36852;45.466;11.066;2023-07-29T14:10:17;30.10;99.90
23347;DHT22;36852;45.466;11.066;2023-07-29T14:12:45;30.30;99.90
23347;DHT22;36852;45.466;11.066;2023-07-29T14:15:13;30.40;99.90
23347;DHT22;36852;45.466;11.066;2023-07-29T14:17:44;30.50;99.90
23347;DHT22;36852;45.466;11.066;2023-07-29T14:20:12;30.50;99.90
23347;DHT22;36852;45.466;11.066;2023-07-29T14:22:40;30.50;99.90
23347;DHT22;36852;45.466;11.066;2023-07-29T14:25:08;30.50;99.90
23347;DHT22;36852;45.466;11.066;2023-07-29T14:27:39;30.60;99.90
23347;DHT22;36852;45.466;11.066;2023-07-29T14:30:08;30.70;99.90
23347;DHT22;36852;45.466;11.066;2023-07-29T14:32:36;30.80;99.10
23347;DHT22;36852;45.466;11.066;2023-07-29T14:35:04;31.00;99.60
23347;DHT22;36852;45.466;11.066;2023-07-29T14:37:32;31.20;98.20
23347;DHT22;36852;45.466;11.066;2023-07-29T14:40:00;31.30;98.10
23347;DHT22;36852;45.466;11.066;2023-07-29T14:42:28;31.30;96.50
23347;DHT22;36852;45.466;11.066;2023-07-29T14:44:57;31.20;96.50
23347;DHT22;36852;45.466;11.066;2023-07-29T14:47:26;31.20;97.50
23347;DHT22;36852;45.466;11.066;2023-07-29T14:49:53;31.20;97.20
23347;DHT22;36852;45.466;11.066;2023-07-29T14:52:24;31.30;98.80
23347;DHT22;36852;45.466;11.066;2023-07-29T14:54:53;31.50;98.60
23347;DHT22;36852;45.466;11.066;2023-07-29T14:57:24;31.70;97.90
23347;DHT22;36852;45.466;11.066;2023-07-29T14:59:51;31.90;98.20
23347;DHT22;36852;45.466;11.066;2023-07-29T15:02:19;32.10;96.40
23347;DHT22;36852;45.466;11.066;2023-07-29T15:04:46;32.30;95.60
23347;DHT22;36852;45.466;11.066;2023-07-29T15:07:14;32.40;95.70
23347;DHT22;36852;45.466;11.066;2023-07-29T15:09:43;32.60;95.20
23347;DHT22;36852;45.466;11.066;2023-07-29T15:12:11;32.70;94.20
23347;DHT22;36852;45.466;11.066;2023-07-29T15:14:39;32.70;94.00
23347;DHT22;36852;45.466;11.066;2023-07-29T15:17:08;32.90;94.20
23347;DHT22;36852;45.466;11.066;2023-07-29T15:19:35;33.00;94.00
23347;DHT22;36852;45.466;11.066;2023-07-29T15:22:04;33.00;93.10
23347;DHT22;36852;45.466;11.066;2023-07-29T15:24:32;32.80;93.10
23347;DHT22;36852;45.466;11.066;2023-07-29T15:27:00;32.70;92.90
23347;DHT22;36852;45.466;11.066;2023-07-29T15:29:28;32.70;93.10
23347;DHT22;36852;45.466;11.066;2023-07-29T15:31:56;32.70;92.90
23347;DHT22;36852;45.466;11.066;2023-07-29T15:34:23;32.90;92.90
23347;DHT22;36852;45.466;11.066;2023-07-29T15:36:53;33.00;93.10
23347;DHT22;36852;45.466;11.066;2023-07-29T15:39:22;33.10;93.00
23347;DHT22;36852;45.466;11.066;2023-07-29T15:41:50;33.30;92.20